createdAt,value
2022-08-17T00:00:34.965Z,12.10
2022-08-17T00:05:44.207Z,9.90
2022-08-17T00:10:47.524Z,11.20
2022-08-17T00:15:50.111Z,10.00
2022-08-17T00:20:54.181Z,11.20
2022-08-17T00:25:56.601Z,11.00
2022-08-17T00:30:59.289Z,13.10
2022-08-17T00:36:02.519Z,11.90
2022-08-17T00:41:10.708Z,12.50
2022-08-17T00:46:18.181Z,12.60
2022-08-17T00:51:25.465Z,12.00
2022-08-17T00:56:34.356Z,11.20
2022-08-17T01:01:37.955Z,11.00
2022-08-17T01:06:42.014Z,10.20
2022-08-17T01:11:46.314Z,10.00
2022-08-17T01:16:50.598Z,9.30
2022-08-17T01:22:03.102Z,9.40
2022-08-17T01:27:10.470Z,9.60
2022-08-17T01:32:14.301Z,9.70
2022-08-17T01:37:18.150Z,10.70
2022-08-17T01:42:29.368Z,11.40
2022-08-17T01:47:32.312Z,10.90
2022-08-17T01:52:39.419Z,10.00
2022-08-17T01:57:45.353Z,10.00
2022-08-17T02:02:48.092Z,10.40
2022-08-17T02:08:00.644Z,11.20
2022-08-17T02:13:04.343Z,11.30
2022-08-17T02:18:09.091Z,11.80
2022-08-17T02:23:13.599Z,10.40
2022-08-17T02:28:17.377Z,10.90
2022-08-17T02:33:20.798Z,11.70
2022-08-17T02:38:24.029Z,11.70
2022-08-17T02:43:27.536Z,11.60
2022-08-17T02:48:31.948Z,11.30
2022-08-17T02:53:35.785Z,12.40
2022-08-17T02:58:38.835Z,12.00
2022-08-17T03:03:42.123Z,11.60
2022-08-17T03:08:44.574Z,12.20
2022-08-17T03:13:46.974Z,11.60
2022-08-17T03:18:49.386Z,12.00
2022-08-17T03:23:54.736Z,11.30
2022-08-17T03:28:57.242Z,11.80
2022-08-17T03:34:00.908Z,11.90
2022-08-17T03:39:04.670Z,11.90
2022-08-17T03:44:07.163Z,12.10
2022-08-17T03:49:12.617Z,11.50
2022-08-17T03:54:17.986Z,11.80
2022-08-17T03:59:22.671Z,12.70
2022-08-17T04:04:27.608Z,12.30
2022-08-17T04:09:30.921Z,11.70
2022-08-17T04:14:39.287Z,12.20
2022-08-17T04:19:55.376Z,13.10
2022-08-17T04:24:57.893Z,13.40
2022-08-17T04:30:01.958Z,14.70
2022-08-17T04:35:04.724Z,13.80
2022-08-17T04:40:10.641Z,13.60
2022-08-17T04:45:13.066Z,13.50
2022-08-17T04:50:16.877Z,14.60
2022-08-17T04:55:19.293Z,12.80
2022-08-17T05:00:21.744Z,13.30
2022-08-17T05:05:27.648Z,12.50
2022-08-17T05:10:33.881Z,13.40
2022-08-17T05:15:45.204Z,13.10
2022-08-17T05:20:50.318Z,14.00
2022-08-17T05:25:56.307Z,13.30
2022-08-17T05:31:01.555Z,13.80
2022-08-17T05:43:24.674Z,12.40
2022-08-17T05:48:35.554Z,13.50
2022-08-17T05:53:43.574Z,13.70
2022-08-17T05:58:46.899Z,12.80
2022-08-17T06:03:55.378Z,13.80
2022-08-17T06:09:05.684Z,14.50
2022-08-17T06:14:20.672Z,14.50
2022-08-17T06:19:22.989Z,14.70
2022-08-17T06:24:31.240Z,12.40
2022-08-17T06:29:48.246Z,13.70
2022-08-17T06:34:51.779Z,12.00
2022-08-17T06:40:22.594Z,13.40
2022-08-17T06:45:31.153Z,12.70
2022-08-17T06:50:44.087Z,13.40
2022-08-17T06:55:53.845Z,13.60
2022-08-17T07:01:00.743Z,13.30
2022-08-17T07:06:10.963Z,12.30
2022-08-17T07:11:19.156Z,12.70
2022-08-17T07:16:30.384Z,12.60
2022-08-17T07:21:43.385Z,11.80
2022-08-17T07:26:46.517Z,10.00
2022-08-17T07:31:48.998Z,12.40
2022-08-17T07:37:05.110Z,11.90
2022-08-17T07:42:10.157Z,12.20
2022-08-17T07:47:19.118Z,11.80
2022-08-17T07:52:51.365Z,13.00
2022-08-17T07:57:57.176Z,11.90
2022-08-17T08:03:14.573Z,11.90
2022-08-17T08:08:25.796Z,11.20
2022-08-17T08:13:30.140Z,10.90
2022-08-17T08:18:54.169Z,10.60
2022-08-17T08:24:09.487Z,9.70
2022-08-17T08:29:28.277Z,10.80
2022-08-17T08:35:02.098Z,8.70
2022-08-17T08:40:10.820Z,8.30
2022-08-17T08:45:23.964Z,9.20
2022-08-17T08:50:38.145Z,8.40
2022-08-17T08:55:46.857Z,8.30
2022-08-17T09:00:54.493Z,8.90
2022-08-17T09:06:06.712Z,7.50
2022-08-17T09:12:02.082Z,7.90
2022-08-17T09:17:12.549Z,8.60
2022-08-17T09:22:30.317Z,8.00
2022-08-17T09:27:47.515Z,8.20
2022-08-17T09:32:58.733Z,7.60
2022-08-17T09:38:13.118Z,7.10
2022-08-17T09:43:27.493Z,7.70
2022-08-17T09:48:38.856Z,6.70
2022-08-17T09:53:44.555Z,6.40
2022-08-17T09:59:01.891Z,5.70
2022-08-17T10:04:08.713Z,5.40
2022-08-17T10:09:20.312Z,5.30
2022-08-17T10:14:36.284Z,5.00
2022-08-17T10:19:49.194Z,5.40
2022-08-17T10:25:21.507Z,5.10
2022-08-17T10:30:24.910Z,5.10
2022-08-17T10:35:30.218Z,5.00
2022-08-17T10:40:37.955Z,4.40
2022-08-17T10:46:50.064Z,4.60
2022-08-17T10:51:57.150Z,5.20
2022-08-17T10:56:59.719Z,5.30
2022-08-17T11:02:12.107Z,5.20
2022-08-17T11:07:29.098Z,5.30
2022-08-17T11:12:33.448Z,4.40
2022-08-17T11:17:41.700Z,4.60
2022-08-17T11:23:03.966Z,4.50
2022-08-17T11:28:18.034Z,4.50
2022-08-17T11:33:44.744Z,4.80
2022-08-17T11:38:57.781Z,4.50
2022-08-17T11:49:38.944Z,4.30
2022-08-17T11:54:45.679Z,4.70
2022-08-17T11:59:48.100Z,4.30
2022-08-17T12:04:57.525Z,4.60
2022-08-17T12:10:00.932Z,4.30
2022-08-17T12:15:10.585Z,4.40
2022-08-17T12:20:16.096Z,4.30
2022-08-17T12:25:32.796Z,4.20
2022-08-17T12:30:36.179Z,4.10
2022-08-17T12:35:38.952Z,4.40
2022-08-17T12:40:54.432Z,4.00
2022-08-17T12:46:01.291Z,4.60
2022-08-17T12:51:18.092Z,3.80
2022-08-17T12:56:20.844Z,4.10
2022-08-17T13:01:25.135Z,3.90
2022-08-17T13:06:33.128Z,4.20
2022-08-17T13:11:35.644Z,3.90
2022-08-17T13:16:38.240Z,4.30
2022-08-17T13:21:45.847Z,4.50
2022-08-17T13:26:54.357Z,4.00
2022-08-17T13:32:04.285Z,4.40
2022-08-17T13:37:18.287Z,3.80
2022-08-17T13:42:29.384Z,3.70
2022-08-17T13:47:34.211Z,3.90
2022-08-17T13:52:42.946Z,3.90
2022-08-17T13:57:50.329Z,3.70
